createdAt,value
2023-01-13T00:01:30.054Z,53.10
2023-01-13T00:04:01.070Z,53.10
2023-01-13T00:06:31.094Z,53.20
2023-01-13T00:08:59.689Z,53.10
2023-01-13T00:11:28.299Z,53.10
2023-01-13T00:13:57.283Z,53.10
2023-01-13T00:16:25.895Z,53.10
2023-01-13T00:18:54.479Z,53.10
2023-01-13T00:21:25.288Z,53.20
2023-01-13T00:23:57.174Z,53.10
2023-01-13T00:26:30.483Z,53.10
2023-01-13T00:29:00.728Z,53.20
2023-01-13T00:31:30.465Z,53.10
2023-01-13T00:33:59.998Z,53.10
2023-01-13T00:36:28.954Z,53.10
2023-01-13T00:38:59.486Z,53.20
2023-01-13T00:41:49.543Z,53.10
2023-01-13T00:44:17.263Z,53.20
2023-01-13T00:46:45.897Z,53.20
2023-01-13T00:49:14.579Z,53.20
2023-01-13T00:51:43.163Z,53.20
2023-01-13T00:54:13.189Z,53.20
2023-01-13T00:56:41.827Z,53.30
2023-01-13T00:59:13.734Z,53.30
2023-01-13T01:01:43.071Z,53.30
2023-01-13T01:04:12.215Z,53.30
2023-01-13T01:06:40.828Z,53.30
2023-01-13T01:09:09.445Z,53.40
2023-01-13T01:11:39.468Z,53.40
2023-01-13T01:14:08.950Z,53.40
2023-01-13T01:16:40.051Z,53.40
2023-01-13T01:19:08.949Z,53.40
2023-01-13T01:21:37.619Z,53.40
2023-01-13T01:24:07.106Z,53.40
2023-01-13T01:26:35.729Z,53.40
2023-01-13T01:29:05.776Z,53.40
2023-01-13T01:31:35.047Z,53.50
2023-01-13T01:34:03.924Z,53.40
2023-01-13T01:36:34.886Z,53.40
2023-01-13T01:39:03.737Z,53.50
2023-01-13T01:41:35.342Z,53.40
2023-01-13T01:44:29.031Z,53.50
2023-01-13T01:46:58.976Z,53.50
2023-01-13T01:49:32.366Z,53.50
2023-01-13T01:52:05.671Z,53.50
2023-01-13T01:54:41.118Z,53.50
2023-01-13T01:57:13.968Z,53.50
2023-01-13T01:59:44.635Z,53.50
2023-01-13T02:02:13.928Z,53.50
2023-01-13T02:05:01.341Z,53.50
2023-01-13T02:07:33.504Z,53.50
2023-01-13T02:10:06.847Z,53.60
2023-01-13T02:12:36.443Z,53.60
2023-01-13T02:15:09.984Z,53.60
2023-01-13T02:18:19.307Z,53.60
2023-01-13T02:20:59.126Z,53.70
2023-01-13T02:24:38.472Z,53.70
2023-01-13T02:27:53.342Z,53.80
2023-01-13T02:30:57.355Z,53.70
2023-01-13T02:33:41.333Z,54.30
2023-01-13T02:36:21.456Z,53.70
2023-01-13T02:38:53.879Z,53.70
2023-01-13T02:41:47.675Z,53.70
2023-01-13T02:44:22.946Z,53.80
2023-01-13T02:46:58.303Z,53.80
2023-01-13T02:49:35.503Z,53.80
2023-01-13T02:52:11.669Z,53.80
2023-01-13T02:54:44.482Z,53.80
2023-01-13T02:57:15.367Z,53.80
2023-01-13T02:59:45.243Z,53.80
2023-01-13T03:02:23.024Z,53.80
2023-01-13T03:04:55.807Z,53.80
2023-01-13T03:07:59.399Z,53.80
2023-01-13T03:10:53.086Z,53.90
2023-01-13T03:13:45.061Z,53.80
2023-01-13T03:16:30.099Z,53.90
2023-01-13T03:19:15.285Z,53.80
2023-01-13T03:21:53.750Z,53.90
2023-01-13T03:24:29.765Z,53.90
2023-01-13T03:27:05.119Z,53.80
2023-01-13T03:29:38.050Z,53.90
2023-01-13T03:32:13.209Z,53.80
2023-01-13T03:34:47.998Z,53.90
2023-01-13T03:37:21.369Z,53.90
2023-01-13T03:39:55.929Z,53.90
2023-01-13T03:42:27.669Z,53.90
2023-01-13T03:45:01.084Z,53.90
2023-01-13T03:47:36.843Z,53.90
2023-01-13T03:50:11.585Z,53.90
2023-01-13T03:52:45.888Z,54.00
2023-01-13T03:55:19.249Z,54.00
2023-01-13T03:57:55.017Z,54.00
2023-01-13T04:00:28.162Z,54.00
2023-01-13T04:03:02.582Z,54.00
2023-01-13T04:05:35.116Z,54.00
2023-01-13T04:08:13.807Z,54.10
2023-01-13T04:10:50.677Z,54.10
2023-01-13T04:13:23.897Z,54.00
2023-01-13T04:15:52.877Z,54.10
2023-01-13T04:18:26.212Z,54.00
2023-01-13T04:20:58.808Z,54.10
2023-01-13T04:23:29.044Z,54.00
2023-01-13T04:25:58.345Z,54.00
2023-01-13T04:28:28.043Z,54.00
2023-01-13T04:30:56.836Z,54.10
2023-01-13T04:33:25.554Z,54.00
2023-01-13T04:35:55.560Z,54.00
2023-01-13T04:38:24.250Z,54.00
2023-01-13T04:40:52.882Z,54.00
2023-01-13T04:43:21.510Z,54.10
2023-01-13T04:45:50.096Z,54.00
2023-01-13T04:48:18.681Z,54.00
2023-01-13T04:50:47.367Z,54.00
2023-01-13T04:53:17.434Z,54.00
2023-01-13T04:55:47.897Z,54.00
2023-01-13T04:58:16.788Z,54.00
2023-01-13T05:00:45.596Z,54.00
2023-01-13T05:03:14.296Z,53.90
2023-01-13T05:05:43.269Z,54.00
2023-01-13T05:08:11.865Z,53.90
2023-01-13T05:10:41.908Z,53.90
2023-01-13T05:13:24.727Z,53.80
2023-01-13T05:16:19.318Z,53.80
2023-01-13T05:18:48.112Z,53.80
2023-01-13T05:21:30.613Z,53.80
2023-01-13T05:24:16.690Z,53.80
2023-01-13T05:26:46.875Z,53.80
2023-01-13T05:29:15.473Z,53.70
2023-01-13T05:31:44.104Z,53.70
2023-01-13T05:34:12.774Z,53.70
2023-01-13T05:36:41.450Z,53.70
2023-01-13T05:39:10.455Z,53.70
2023-01-13T05:41:56.403Z,53.70
2023-01-13T05:44:26.525Z,53.70
2023-01-13T05:46:55.204Z,53.60
2023-01-13T05:49:23.839Z,53.70
2023-01-13T05:51:52.408Z,53.60
2023-01-13T05:54:21.098Z,53.60
2023-01-13T05:56:49.667Z,53.60
2023-01-13T05:59:18.284Z,53.60
2023-01-13T06:01:48.285Z,53.60
2023-01-13T06:04:16.951Z,53.60
2023-01-13T06:06:45.588Z,53.60
2023-01-13T06:09:14.544Z,53.60
2023-01-13T06:11:43.178Z,53.60
2023-01-13T06:14:11.901Z,53.50
2023-01-13T06:16:40.591Z,53.50
2023-01-13T06:19:13.064Z,53.60
2023-01-13T06:21:41.903Z,53.60
2023-01-13T06:24:10.741Z,53.60
2023-01-13T06:26:41.815Z,53.70
2023-01-13T06:29:14.061Z,53.80
2023-01-13T06:31:42.724Z,53.90
2023-01-13T06:34:15.216Z,53.90
2023-01-13T06:36:47.742Z,54.20
2023-01-13T06:39:21.962Z,54.20
2023-01-13T06:42:10.922Z,54.20
2023-01-13T06:44:39.679Z,54.30
2023-01-13T06:47:08.837Z,54.20
2023-01-13T06:49:38.955Z,54.20
2023-01-13T06:52:07.595Z,54.30
2023-01-13T06:54:36.234Z,54.30
2023-01-13T06:57:05.681Z,54.30
2023-01-13T06:59:35.340Z,54.40
2023-01-13T07:02:04.502Z,54.40
2023-01-13T07:04:33.296Z,54.40
2023-01-13T07:07:03.315Z,54.50
2023-01-13T07:09:31.958Z,54.60
2023-01-13T07:12:00.802Z,54.60
2023-01-13T07:14:46.868Z,54.60
2023-01-13T07:17:15.474Z,54.60
2023-01-13T07:19:44.074Z,54.50
2023-01-13T07:22:15.947Z,54.60
2023-01-13T07:24:44.572Z,54.70
2023-01-13T07:27:13.197Z,54.60
2023-01-13T07:29:41.856Z,54.50
2023-01-13T07:32:10.660Z,54.50
2023-01-13T07:34:39.311Z,54.60
2023-01-13T07:37:07.949Z,54.60
2023-01-13T07:39:38.244Z,54.60
2023-01-13T07:42:23.703Z,54.70
2023-01-13T07:44:52.379Z,54.60
2023-01-13T07:47:23.306Z,54.60
2023-01-13T07:49:51.938Z,54.60
2023-01-13T07:52:20.558Z,54.60
2023-01-13T07:54:50.895Z,54.60
2023-01-13T07:57:19.667Z,54.70
2023-01-13T07:59:48.356Z,54.70
2023-01-13T08:02:17.224Z,54.50
2023-01-13T08:04:45.948Z,54.50
2023-01-13T08:07:14.560Z,54.50
2023-01-13T08:09:43.233Z,54.40
2023-01-13T08:12:30.571Z,54.40
2023-01-13T08:14:59.197Z,54.30
2023-01-13T08:17:28.840Z,54.30
2023-01-13T08:19:57.390Z,54.30
2023-01-13T08:22:26.050Z,54.30
2023-01-13T08:24:54.665Z,54.30
2023-01-13T08:27:24.663Z,54.30
2023-01-13T08:29:53.311Z,54.30
2023-01-13T08:32:21.911Z,54.30
2023-01-13T08:34:50.545Z,54.30
2023-01-13T08:37:19.360Z,54.30
2023-01-13T08:39:48.031Z,54.20
2023-01-13T08:42:16.697Z,54.20
2023-01-13T08:44:46.711Z,54.20
2023-01-13T08:47:15.337Z,54.10
2023-01-13T08:49:43.963Z,54.10
2023-01-13T08:52:12.849Z,54.00
2023-01-13T08:54:41.847Z,54.00
2023-01-13T08:57:10.778Z,54.00
2023-01-13T08:59:39.552Z,53.90
2023-01-13T09:02:15.571Z,53.80
2023-01-13T09:04:45.127Z,53.70
2023-01-13T09:07:14.479Z,53.80
2023-01-13T09:09:43.495Z,53.80
2023-01-13T09:12:31.555Z,53.80
2023-01-13T09:15:00.410Z,53.80
2023-01-13T09:17:30.440Z,53.70
2023-01-13T09:19:59.079Z,53.70
2023-01-13T09:22:28.992Z,53.80
2023-01-13T09:24:58.108Z,53.80
2023-01-13T09:27:26.728Z,53.70
2023-01-13T09:29:55.311Z,53.70
2023-01-13T09:32:23.978Z,53.70
2023-01-13T09:35:02.043Z,53.80
2023-01-13T09:37:32.538Z,53.80
2023-01-13T09:40:01.256Z,53.80
2023-01-13T09:43:05.181Z,53.70
2023-01-13T09:45:40.300Z,53.70
2023-01-13T09:48:15.110Z,53.50
2023-01-13T09:51:00.965Z,53.60
2023-01-13T09:53:34.266Z,53.40
2023-01-13T09:56:03.158Z,53.50
2023-01-13T09:58:31.884Z,53.60
2023-01-13T10:01:12.527Z,53.50
2023-01-13T10:03:41.921Z,53.60
2023-01-13T10:06:18.244Z,53.70
2023-01-13T10:08:48.791Z,53.60
2023-01-13T10:11:38.136Z,53.70
2023-01-13T10:14:24.708Z,53.60
2023-01-13T10:17:04.921Z,53.70
2023-01-13T10:19:40.232Z,53.60
2023-01-13T10:22:35.531Z,53.60
2023-01-13T10:25:23.620Z,53.60
2023-01-13T10:27:55.484Z,53.60
2023-01-13T10:30:31.610Z,53.60
2023-01-13T10:33:02.841Z,53.70
2023-01-13T10:36:00.329Z,53.70
2023-01-13T10:38:39.351Z,53.70
2023-01-13T10:41:20.882Z,53.70
2023-01-13T10:44:03.560Z,53.70
2023-01-13T10:46:34.573Z,53.50
2023-01-13T10:49:05.508Z,53.60
2023-01-13T10:51:45.504Z,53.60
2023-01-13T10:54:23.383Z,53.50
2023-01-13T10:57:19.236Z,53.50
2023-01-13T10:59:48.482Z,53.50
2023-01-13T11:02:27.858Z,53.50
2023-01-13T11:05:20.142Z,53.40
2023-01-13T11:07:52.579Z,53.40
2023-01-13T11:10:27.304Z,53.40
2023-01-13T11:13:05.416Z,53.50
2023-01-13T11:15:42.317Z,53.40
2023-01-13T11:18:20.856Z,53.20
2023-01-13T11:20:52.799Z,53.20
2023-01-13T11:23:27.680Z,53.20
2023-01-13T11:26:12.681Z,53.80
2023-01-13T11:28:50.111Z,53.10
2023-01-13T11:31:25.629Z,53.10
2023-01-13T11:34:01.025Z,53.00
2023-01-13T11:36:36.063Z,52.90
2023-01-13T11:39:18.666Z,52.70
2023-01-13T11:42:14.148Z,52.70
2023-01-13T11:44:47.806Z,52.60
2023-01-13T11:47:26.544Z,52.50
2023-01-13T11:49:55.736Z,52.30
2023-01-13T11:52:35.426Z,52.50
2023-01-13T11:55:22.756Z,52.30
2023-01-13T11:58:15.533Z,52.20
2023-01-13T12:01:22.925Z,52.20
2023-01-13T12:04:05.656Z,52.10
2023-01-13T12:06:37.504Z,52.10
2023-01-13T12:09:31.812Z,52.10
2023-01-13T12:12:22.872Z,51.80
2023-01-13T12:15:35.931Z,51.90
2023-01-13T12:18:22.463Z,51.80
2023-01-13T12:21:08.430Z,51.70
2023-01-13T12:23:44.806Z,51.70
2023-01-13T12:26:17.104Z,51.80
2023-01-13T12:28:51.353Z,51.90
2023-01-13T12:31:23.294Z,51.70
2023-01-13T12:34:11.462Z,51.70
2023-01-13T12:36:55.712Z,51.50
2023-01-13T12:39:34.736Z,51.50
2023-01-13T12:42:43.567Z,51.50
2023-01-13T12:45:30.607Z,51.50
2023-01-13T12:48:01.613Z,51.40
2023-01-13T12:50:44.359Z,51.50
2023-01-13T12:53:38.589Z,51.30
2023-01-13T12:56:40.397Z,51.30
2023-01-13T12:59:51.530Z,51.20
2023-01-13T13:02:36.201Z,51.30
2023-01-13T13:05:40.917Z,51.30
2023-01-13T13:08:19.531Z,51.30
2023-01-13T13:11:03.336Z,51.30
2023-01-13T13:13:46.856Z,51.20
2023-01-13T13:16:55.938Z,51.10
2023-01-13T13:19:58.904Z,51.00
2023-01-13T13:22:51.791Z,51.10
2023-01-13T13:25:27.893Z,51.00
2023-01-13T13:28:10.244Z,50.80
2023-01-13T13:30:45.861Z,50.70
2023-01-13T13:33:39.070Z,50.90
2023-01-13T13:36:28.065Z,50.70
2023-01-13T13:39:36.115Z,50.80
2023-01-13T13:42:32.283Z,50.60
2023-01-13T13:45:21.264Z,50.60
2023-01-13T13:47:49.929Z,50.60
2023-01-13T13:50:22.115Z,50.70
2023-01-13T13:52:56.585Z,50.30
2023-01-13T13:55:29.993Z,50.40
2023-01-13T13:58:01.686Z,50.20
2023-01-13T14:00:34.630Z,50.30
2023-01-13T14:03:06.998Z,50.30
2023-01-13T14:05:37.990Z,50.30
2023-01-13T14:08:16.610Z,50.30
2023-01-13T14:10:47.899Z,50.00
2023-01-13T14:13:21.329Z,50.20
2023-01-13T14:15:57.394Z,50.30
2023-01-13T14:18:27.180Z,50.20
2023-01-13T14:20:59.828Z,50.20
2023-01-13T14:23:30.691Z,50.10
2023-01-13T14:26:10.050Z,50.10
2023-01-13T14:28:40.304Z,49.70
2023-01-13T14:31:10.581Z,50.00
2023-01-13T14:33:43.264Z,49.90
2023-01-13T14:36:20.127Z,49.80
2023-01-13T14:38:51.468Z,50.30
2023-01-13T14:41:25.745Z,49.90
2023-01-13T14:43:59.265Z,49.80
2023-01-13T14:46:38.908Z,49.80
2023-01-13T14:49:24.986Z,49.50
2023-01-13T14:51:54.463Z,49.70
2023-01-13T14:54:51.409Z,50.00
2023-01-13T14:57:29.719Z,49.70
2023-01-13T15:00:08.141Z,49.70
2023-01-13T15:02:46.492Z,49.80
2023-01-13T15:05:42.657Z,49.80
2023-01-13T15:08:44.593Z,49.70
2023-01-13T15:11:25.754Z,49.80
2023-01-13T15:14:02.858Z,49.70
2023-01-13T15:16:33.904Z,49.60
2023-01-13T15:19:03.682Z,49.80
2023-01-13T15:21:32.363Z,49.80
2023-01-13T15:24:01.212Z,49.80
2023-01-13T15:26:31.681Z,49.80
2023-01-13T15:29:01.798Z,49.70
2023-01-13T15:31:30.715Z,49.60
2023-01-13T15:34:00.796Z,49.60
2023-01-13T15:36:31.964Z,49.70
2023-01-13T15:39:02.271Z,49.60
2023-01-13T15:41:48.873Z,49.60
2023-01-13T15:44:36.684Z,49.50
2023-01-13T15:47:09.110Z,49.50
2023-01-13T15:49:41.312Z,49.50
2023-01-13T15:52:21.396Z,49.40
2023-01-13T15:54:50.385Z,49.30
2023-01-13T15:57:24.714Z,49.50
2023-01-13T15:59:58.491Z,49.90
2023-01-13T16:02:27.609Z,49.30
2023-01-13T16:04:56.313Z,49.40
2023-01-13T16:07:26.632Z,49.40
2023-01-13T16:09:55.419Z,49.20
2023-01-13T16:12:24.364Z,49.30
2023-01-13T16:14:54.471Z,49.30
2023-01-13T16:17:24.949Z,49.30
2023-01-13T16:19:53.852Z,49.30
2023-01-13T16:22:22.715Z,49.30
2023-01-13T16:24:51.378Z,49.30
2023-01-13T16:27:22.208Z,49.20
2023-01-13T16:29:51.822Z,49.20
2023-01-13T16:32:21.920Z,49.20
2023-01-13T16:34:50.756Z,49.00
2023-01-13T16:37:25.392Z,49.10
2023-01-13T16:39:55.631Z,48.80
2023-01-13T16:42:24.322Z,48.90
2023-01-13T16:44:52.965Z,48.90
2023-01-13T16:47:24.309Z,48.90
2023-01-13T16:49:52.885Z,48.80
2023-01-13T16:52:21.454Z,48.80
2023-01-13T16:54:50.104Z,48.80
2023-01-13T16:57:18.724Z,48.80
2023-01-13T16:59:47.321Z,48.90
2023-01-13T17:02:20.248Z,48.90
2023-01-13T17:04:50.923Z,48.80
2023-01-13T17:07:19.980Z,48.80
2023-01-13T17:09:48.577Z,48.80
2023-01-13T17:12:17.233Z,48.70
2023-01-13T17:14:45.774Z,48.70
2023-01-13T17:17:23.594Z,48.70
2023-01-13T17:19:54.633Z,48.40
2023-01-13T17:22:24.122Z,48.50
2023-01-13T17:24:52.777Z,48.60
2023-01-13T17:27:21.587Z,48.60
2023-01-13T17:29:50.399Z,48.50
2023-01-13T17:32:23.022Z,48.50
2023-01-13T17:34:53.976Z,48.40
2023-01-13T17:37:22.779Z,48.50
2023-01-13T17:39:53.625Z,48.50
2023-01-13T17:42:24.127Z,48.50
2023-01-13T17:44:53.458Z,48.50
2023-01-13T17:47:22.255Z,48.40
2023-01-13T17:49:50.902Z,48.40
2023-01-13T17:52:21.344Z,48.40
2023-01-13T17:54:49.960Z,48.30
2023-01-13T17:57:18.653Z,48.30
2023-01-13T17:59:48.003Z,48.40
2023-01-13T18:02:16.808Z,48.30
2023-01-13T18:04:45.654Z,48.20
2023-01-13T18:07:14.249Z,48.30
2023-01-13T18:09:44.257Z,48.30
2023-01-13T18:12:12.943Z,48.20
2023-01-13T18:14:41.758Z,48.20
2023-01-13T18:17:10.742Z,48.20
2023-01-13T18:19:56.707Z,48.20
2023-01-13T18:22:42.796Z,48.80
2023-01-13T18:25:32.204Z,48.20
2023-01-13T18:28:01.497Z,48.10
2023-01-13T18:30:30.239Z,48.20
2023-01-13T18:32:58.903Z,48.20
2023-01-13T18:35:27.550Z,48.30
2023-01-13T18:37:56.232Z,48.20
2023-01-13T18:40:26.260Z,48.20
2023-01-13T18:42:54.912Z,48.20
2023-01-13T18:45:26.287Z,48.20
2023-01-13T18:47:58.149Z,48.20
2023-01-13T18:50:28.173Z,48.30
2023-01-13T18:52:57.157Z,48.20
2023-01-13T18:55:28.622Z,48.10
2023-01-13T18:57:57.939Z,48.00
2023-01-13T19:00:27.424Z,48.10
2023-01-13T19:05:36.267Z,48.10
2023-01-13T19:08:05.409Z,48.10
2023-01-13T19:10:36.472Z,48.00
2023-01-13T19:13:05.220Z,47.90
2023-01-13T19:15:33.914Z,48.00
2023-01-13T19:18:02.600Z,48.00
2023-01-13T19:20:31.197Z,48.00
2023-01-13T19:22:59.819Z,48.00
2023-01-13T19:25:28.466Z,48.00
2023-01-13T19:27:58.474Z,48.00
2023-01-13T19:30:27.126Z,48.00
2023-01-13T19:32:55.735Z,48.10
2023-01-13T19:35:24.359Z,47.90
2023-01-13T19:37:53.999Z,47.90
2023-01-13T19:40:22.713Z,48.00
2023-01-13T19:43:08.907Z,48.00
2023-01-13T19:45:38.958Z,48.00
2023-01-13T19:48:08.607Z,47.90
2023-01-13T19:50:39.682Z,47.90
2023-01-13T19:53:09.063Z,47.90
2023-01-13T19:55:37.675Z,47.90
2023-01-13T19:58:08.147Z,47.90
2023-01-13T20:00:46.720Z,47.90
2023-01-13T20:03:15.496Z,47.90
2023-01-13T20:05:44.210Z,47.90
2023-01-13T20:08:13.027Z,48.00
2023-01-13T20:10:42.880Z,48.00
2023-01-13T20:13:11.481Z,47.90
2023-01-13T20:15:42.413Z,48.00
2023-01-13T20:18:11.478Z,47.90
2023-01-13T20:20:40.101Z,48.00
2023-01-13T20:23:08.754Z,48.00
2023-01-13T20:25:37.424Z,48.00
2023-01-13T20:28:07.207Z,48.00
2023-01-13T20:30:35.817Z,48.00
2023-01-13T20:33:05.785Z,48.00
2023-01-13T20:35:34.421Z,48.00
2023-01-13T20:38:03.127Z,48.00
2023-01-13T20:40:31.769Z,48.10
2023-01-13T20:42:59.416Z,48.00
2023-01-13T20:45:28.017Z,48.10
2023-01-13T20:47:56.617Z,48.10
2023-01-13T20:50:26.614Z,48.10
2023-01-13T20:52:55.212Z,48.10
2023-01-13T20:55:23.919Z,48.10
2023-01-13T20:57:52.596Z,48.20
2023-01-13T21:00:22.435Z,48.20
2023-01-13T21:02:51.051Z,48.10
2023-01-13T21:05:19.776Z,48.10
2023-01-13T21:07:49.726Z,48.20
2023-01-13T21:10:18.513Z,48.10
2023-01-13T21:13:04.875Z,48.10
2023-01-13T21:15:33.559Z,48.20
2023-01-13T21:18:19.553Z,48.10
2023-01-13T21:20:48.158Z,48.20
2023-01-13T21:23:18.342Z,48.10
2023-01-13T21:25:46.977Z,48.10
2023-01-13T21:28:16.675Z,48.20
2023-01-13T21:30:46.775Z,48.20
2023-01-13T21:33:15.715Z,48.20
2023-01-13T21:35:44.473Z,48.20
2023-01-13T21:38:13.737Z,48.20
2023-01-13T21:40:43.790Z,48.20
2023-01-13T21:43:31.127Z,48.30
2023-01-13T21:46:31.690Z,48.30
2023-01-13T21:49:00.429Z,48.30
2023-01-13T21:51:29.474Z,49.00
2023-01-13T21:53:58.443Z,48.40
2023-01-13T21:56:28.751Z,48.30
2023-01-13T21:58:57.412Z,48.30
2023-01-13T22:01:26.121Z,48.40
2023-01-13T22:04:12.385Z,48.40
2023-01-13T22:06:41.454Z,48.40
2023-01-13T22:09:10.170Z,48.40
2023-01-13T22:11:40.133Z,48.40
2023-01-13T22:14:09.460Z,48.40
2023-01-13T22:16:41.876Z,48.40
2023-01-13T22:19:11.876Z,48.40
2023-01-13T22:21:40.915Z,48.40
2023-01-13T22:24:09.990Z,48.40
2023-01-13T22:26:39.995Z,48.40
2023-01-13T22:29:08.660Z,48.40
2023-01-13T22:31:37.403Z,48.40
2023-01-13T22:34:06.079Z,48.40
2023-01-13T22:36:34.801Z,48.40
2023-01-13T22:39:04.684Z,48.40
2023-01-13T22:41:33.329Z,48.40
2023-01-13T22:44:03.356Z,48.30
2023-01-13T22:46:31.993Z,48.30
2023-01-13T22:49:00.598Z,48.30
2023-01-13T22:51:30.644Z,48.30
2023-01-13T22:53:59.308Z,48.30
2023-01-13T22:56:28.621Z,48.20
2023-01-13T22:58:58.410Z,48.30
2023-01-13T23:01:31.961Z,48.30
2023-01-13T23:04:01.165Z,48.20
2023-01-13T23:06:33.521Z,48.20
2023-01-13T23:09:02.350Z,48.20
2023-01-13T23:11:31.301Z,48.20
2023-01-13T23:14:02.120Z,48.20
2023-01-13T23:16:35.023Z,48.20
2023-01-13T23:19:04.508Z,48.10
2023-01-13T23:21:37.219Z,48.20
2023-01-13T23:24:07.139Z,48.10
2023-01-13T23:26:37.205Z,48.10
2023-01-13T23:29:08.803Z,48.10
2023-01-13T23:31:40.053Z,48.20
2023-01-13T23:34:08.720Z,48.10
2023-01-13T23:36:41.109Z,48.10
2023-01-13T23:39:09.777Z,48.10
2023-01-13T23:41:38.401Z,48.10
2023-01-13T23:44:07.994Z,48.10
2023-01-13T23:46:38.107Z,48.10
2023-01-13T23:49:06.839Z,48.10
2023-01-13T23:51:35.494Z,48.10
2023-01-13T23:54:04.154Z,48.10
2023-01-13T23:56:34.059Z,48.10
2023-01-13T23:59:02.719Z,48.10
